sensor_id;sensor_type;location;lat;lon;timestamp;P1;durP1;ratioP1;P2;durP2;ratioP2
63943;SDS011;50121;51.218;7.664;2023-10-31T00:01:14;5.95;;;5.10;;
63943;SDS011;50121;51.218;7.664;2023-10-31T00:03:41;5.15;;;4.85;;
63943;SDS011;50121;51.218;7.664;2023-10-31T00:06:11;5.68;;;5.22;;
63943;SDS011;50121;51.218;7.664;2023-10-31T00:08:38;6.20;;;5.80;;
63943;SDS011;50121;51.218;7.664;2023-10-31T00:11:06;6.40;;;5.93;;
63943;SDS011;50121;51.218;7.664;2023-10-31T00:13:33;6.28;;;5.88;;
63943;SDS011;50121;51.218;7.664;2023-10-31T00:16:01;6.80;;;6.38;;
63943;SDS011;50121;51.218;7.664;2023-10-31T00:18:29;7.18;;;6.63;;
63943;SDS011;50121;51.218;7.664;2023-10-31T00:20:56;6.50;;;6.10;;
63943;SDS011;50121;51.218;7.664;2023-10-31T00:23:24;6.38;;;5.97;;
63943;SDS011;50121;51.218;7.664;2023-10-31T00:25:51;6.90;;;6.45;;
63943;SDS011;50121;51.218;7.664;2023-10-31T00:28:19;6.13;;;5.72;;
63943;SDS011;50121;51.218;7.664;2023-10-31T00:30:46;5.95;;;5.45;;
63943;SDS011;50121;51.218;7.664;2023-10-31T00:33:14;5.93;;;5.53;;
63943;SDS011;50121;51.218;7.664;2023-10-31T00:35:41;5.95;;;5.65;;
63943;SDS011;50121;51.218;7.664;2023-10-31T00:38:09;5.38;;;5.07;;
63943;SDS011;50121;51.218;7.664;2023-10-31T00:40:37;6.00;;;5.60;;
63943;SDS011;50121;51.218;7.664;2023-10-31T00:43:04;5.60;;;5.25;;
63943;SDS011;50121;51.218;7.664;2023-10-31T00:45:32;5.75;;;5.35;;
63943;SDS011;50121;51.218;7.664;2023-10-31T00:48:00;5.55;;;5.20;;
63943;SDS011;50121;51.218;7.664;2023-10-31T00:50:28;5.80;;;5.50;;
63943;SDS011;50121;51.218;7.664;2023-10-31T00:52:55;6.15;;;5.80;;
63943;SDS011;50121;51.218;7.664;2023-10-31T00:55:23;5.90;;;5.50;;
63943;SDS011;50121;51.218;7.664;2023-10-31T00:57:52;6.20;;;5.90;;
63943;SDS011;50121;51.218;7.664;2023-10-31T01:00:19;6.00;;;5.70;;
63943;SDS011;50121;51.218;7.664;2023-10-31T01:02:47;6.35;;;5.72;;
63943;SDS011;50121;51.218;7.664;2023-10-31T01:05:14;6.05;;;5.55;;
63943;SDS011;50121;51.218;7.664;2023-10-31T01:07:42;5.70;;;5.40;;
63943;SDS011;50121;51.218;7.664;2023-10-31T01:10:10;6.47;;;5.93;;
63943;SDS011;50121;51.218;7.664;2023-10-31T01:12:37;6.10;;;5.70;;
63943;SDS011;50121;51.218;7.664;2023-10-31T01:15:05;6.80;;;6.20;;
63943;SDS011;50121;51.218;7.664;2023-10-31T01:17:33;6.78;;;6.38;;
63943;SDS011;50121;51.218;7.664;2023-10-31T01:20:01;6.03;;;5.65;;
63943;SDS011;50121;51.218;7.664;2023-10-31T01:22:28;7.45;;;6.00;;
63943;SDS011;50121;51.218;7.664;2023-10-31T01:24:56;6.97;;;6.47;;
63943;SDS011;50121;51.218;7.664;2023-10-31T01:27:23;6.95;;;6.35;;
63943;SDS011;50121;51.218;7.664;2023-10-31T01:29:51;6.60;;;6.10;;
63943;SDS011;50121;51.218;7.664;2023-10-31T01:32:18;6.80;;;6.28;;
63943;SDS011;50121;51.218;7.664;2023-10-31T01:34:47;6.50;;;6.07;;
63943;SDS011;50121;51.218;7.664;2023-10-31T01:37:15;6.63;;;6.20;;
63943;SDS011;50121;51.218;7.664;2023-10-31T01:39:45;7.10;;;6.18;;
63943;SDS011;50121;51.218;7.664;2023-10-31T01:42:14;6.25;;;5.85;;
63943;SDS011;50121;51.218;7.664;2023-10-31T01:44:41;6.68;;;6.18;;
63943;SDS011;50121;51.218;7.664;2023-10-31T01:47:09;7.00;;;6.40;;
63943;SDS011;50121;51.218;7.664;2023-10-31T01:49:37;6.63;;;6.10;;
63943;SDS011;50121;51.218;7.664;2023-10-31T01:52:05;6.50;;;6.00;;
63943;SDS011;50121;51.218;7.664;2023-10-31T01:54:33;6.75;;;6.25;;
63943;SDS011;50121;51.218;7.664;2023-10-31T01:57:02;6.63;;;6.22;;
63943;SDS011;50121;51.218;7.664;2023-10-31T01:59:30;7.30;;;6.80;;
63943;SDS011;50121;51.218;7.664;2023-10-31T02:01:58;6.35;;;5.95;;
63943;SDS011;50121;51.218;7.664;2023-10-31T02:04:26;6.38;;;5.90;;
63943;SDS011;50121;51.218;7.664;2023-10-31T02:06:53;6.18;;;5.80;;
63943;SDS011;50121;51.218;7.664;2023-10-31T02:09:21;6.50;;;5.82;;
63943;SDS011;50121;51.218;7.664;2023-10-31T02:11:53;6.07;;;5.68;;
63943;SDS011;50121;51.218;7.664;2023-10-31T02:14:21;6.10;;;5.70;;
63943;SDS011;50121;51.218;7.664;2023-10-31T02:16:49;5.90;;;5.50;;
63943;SDS011;50121;51.218;7.664;2023-10-31T02:19:18;6.55;;;6.00;;
63943;SDS011;50121;51.218;7.664;2023-10-31T02:21:46;6.70;;;6.10;;
63943;SDS011;50121;51.218;7.664;2023-10-31T02:24:14;6.97;;;6.38;;
63943;SDS011;50121;51.218;7.664;2023-10-31T02:26:42;7.10;;;6.38;;
63943;SDS011;50121;51.218;7.664;2023-10-31T02:29:10;6.30;;;5.85;;
63943;SDS011;50121;51.218;7.664;2023-10-31T02:31:37;7.85;;;7.03;;
63943;SDS011;50121;51.218;7.664;2023-10-31T02:34:05;6.57;;;6.07;;
63943;SDS011;50121;51.218;7.664;2023-10-31T02:36:32;6.50;;;6.00;;
63943;SDS011;50121;51.218;7.664;2023-10-31T02:39:00;6.72;;;6.13;;
63943;SDS011;50121;51.218;7.664;2023-10-31T02:41:28;6.88;;;6.20;;
63943;SDS011;50121;51.218;7.664;2023-10-31T02:43:56;6.90;;;6.30;;
63943;SDS011;50121;51.218;7.664;2023-10-31T02:46:24;6.60;;;6.00;;
63943;SDS011;50121;51.218;7.664;2023-10-31T02:48:52;7.35;;;6.65;;
63943;SDS011;50121;51.218;7.664;2023-10-31T02:51:19;6.78;;;6.28;;
63943;SDS011;50121;51.218;7.664;2023-10-31T02:53:47;7.35;;;6.60;;
63943;SDS011;50121;51.218;7.664;2023-10-31T02:56:14;7.53;;;6.82;;
63943;SDS011;50121;51.218;7.664;2023-10-31T02:58:42;7.95;;;7.20;;
63943;SDS011;50121;51.218;7.664;2023-10-31T03:01:09;8.52;;;7.55;;
63943;SDS011;50121;51.218;7.664;2023-10-31T03:03:37;9.13;;;6.97;;
63943;SDS011;50121;51.218;7.664;2023-10-31T03:06:04;7.88;;;7.18;;
63943;SDS011;50121;51.218;7.664;2023-10-31T03:08:32;9.52;;;7.28;;
63943;SDS011;50121;51.218;7.664;2023-10-31T03:10:59;10.98;;;10.18;;
63943;SDS011;50121;51.218;7.664;2023-10-31T03:13:27;8.07;;;7.32;;
63943;SDS011;50121;51.218;7.664;2023-10-31T03:15:55;9.15;;;7.40;;
63943;SDS011;50121;51.218;7.664;2023-10-31T03:18:23;7.82;;;7.13;;
63943;SDS011;50121;51.218;7.664;2023-10-31T03:20:51;8.77;;;7.97;;
63943;SDS011;50121;51.218;7.664;2023-10-31T03:23:19;8.63;;;7.72;;
63943;SDS011;50121;51.218;7.664;2023-10-31T03:25:46;9.13;;;8.02;;
63943;SDS011;50121;51.218;7.664;2023-10-31T03:28:18;8.65;;;7.93;;
63943;SDS011;50121;51.218;7.664;2023-10-31T03:30:47;8.68;;;7.78;;
63943;SDS011;50121;51.218;7.664;2023-10-31T03:33:14;10.20;;;7.90;;
63943;SDS011;50121;51.218;7.664;2023-10-31T03:35:45;8.57;;;7.80;;
63943;SDS011;50121;51.218;7.664;2023-10-31T03:38:13;7.93;;;7.13;;
63943;SDS011;50121;51.218;7.664;2023-10-31T03:40:40;10.55;;;8.32;;
63943;SDS011;50121;51.218;7.664;2023-10-31T03:43:11;8.43;;;7.63;;
63943;SDS011;50121;51.218;7.664;2023-10-31T03:45:38;9.93;;;8.93;;
63943;SDS011;50121;51.218;7.664;2023-10-31T03:48:06;10.43;;;8.70;;
63943;SDS011;50121;51.218;7.664;2023-10-31T03:50:34;10.32;;;8.80;;
63943;SDS011;50121;51.218;7.664;2023-10-31T03:53:01;10.00;;;8.60;;
63943;SDS011;50121;51.218;7.664;2023-10-31T03:55:29;9.75;;;8.32;;
63943;SDS011;50121;51.218;7.664;2023-10-31T03:57:56;9.82;;;8.85;;
63943;SDS011;50121;51.218;7.664;2023-10-31T04:00:24;9.20;;;8.10;;
63943;SDS011;50121;51.218;7.664;2023-10-31T04:02:52;8.90;;;8.10;;
63943;SDS011;50121;51.218;7.664;2023-10-31T04:05:20;8.82;;;7.90;;
63943;SDS011;50121;51.218;7.664;2023-10-31T04:07:48;8.40;;;7.60;;
63943;SDS011;50121;51.218;7.664;2023-10-31T04:10:16;8.90;;;8.00;;
63943;SDS011;50121;51.218;7.664;2023-10-31T04:12:43;8.82;;;7.82;;
63943;SDS011;50121;51.218;7.664;2023-10-31T04:15:11;10.50;;;8.35;;
63943;SDS011;50121;51.218;7.664;2023-10-31T04:17:38;9.73;;;7.85;;
63943;SDS011;50121;51.218;7.664;2023-10-31T04:20:06;8.57;;;7.78;;
63943;SDS011;50121;51.218;7.664;2023-10-31T04:22:34;9.25;;;8.45;;
63943;SDS011;50121;51.218;7.664;2023-10-31T04:25:02;10.80;;;7.90;;
63943;SDS011;50121;51.218;7.664;2023-10-31T04:27:29;8.48;;;7.68;;
63943;SDS011;50121;51.218;7.664;2023-10-31T04:29:57;9.25;;;7.70;;
63943;SDS011;50121;51.218;7.664;2023-10-31T04:32:25;8.85;;;7.90;;
63943;SDS011;50121;51.218;7.664;2023-10-31T04:34:52;8.05;;;7.10;;
63943;SDS011;50121;51.218;7.664;2023-10-31T04:37:21;8.23;;;7.45;;
63943;SDS011;50121;51.218;7.664;2023-10-31T04:39:48;7.57;;;6.85;;
63943;SDS011;50121;51.218;7.664;2023-10-31T04:42:16;7.68;;;6.97;;
63943;SDS011;50121;51.218;7.664;2023-10-31T04:44:44;6.72;;;6.13;;
63943;SDS011;50121;51.218;7.664;2023-10-31T04:47:12;7.25;;;6.55;;
63943;SDS011;50121;51.218;7.664;2023-10-31T04:49:39;7.93;;;6.97;;
63943;SDS011;50121;51.218;7.664;2023-10-31T04:52:07;8.15;;;6.57;;
63943;SDS011;50121;51.218;7.664;2023-10-31T04:54:34;8.02;;;7.22;;
63943;SDS011;50121;51.218;7.664;2023-10-31T04:57:02;8.02;;;7.22;;
63943;SDS011;50121;51.218;7.664;2023-10-31T04:59:30;7.53;;;6.82;;
63943;SDS011;50121;51.218;7.664;2023-10-31T05:01:58;7.32;;;6.00;;
63943;SDS011;50121;51.218;7.664;2023-10-31T05:04:25;6.50;;;5.88;;
63943;SDS011;50121;51.218;7.664;2023-10-31T05:06:53;7.72;;;6.10;;
63943;SDS011;50121;51.218;7.664;2023-10-31T05:09:20;6.30;;;5.80;;
63943;SDS011;50121;51.218;7.664;2023-10-31T05:11:49;6.40;;;5.80;;
63943;SDS011;50121;51.218;7.664;2023-10-31T05:14:17;7.35;;;6.10;;
63943;SDS011;50121;51.218;7.664;2023-10-31T05:16:44;6.78;;;6.07;;
63943;SDS011;50121;51.218;7.664;2023-10-31T05:19:12;6.90;;;6.30;;
63943;SDS011;50121;51.218;7.664;2023-10-31T05:21:39;7.22;;;6.50;;
63943;SDS011;50121;51.218;7.664;2023-10-31T05:24:10;6.82;;;6.18;;
63943;SDS011;50121;51.218;7.664;2023-10-31T05:26:39;6.82;;;6.22;;
63943;SDS011;50121;51.218;7.664;2023-10-31T05:29:06;6.88;;;6.28;;
63943;SDS011;50121;51.218;7.664;2023-10-31T05:31:34;6.55;;;6.05;;
63943;SDS011;50121;51.218;7.664;2023-10-31T05:34:01;6.60;;;6.10;;
63943;SDS011;50121;51.218;7.664;2023-10-31T05:36:33;6.60;;;6.10;;
63943;SDS011;50121;51.218;7.664;2023-10-31T05:39:00;7.22;;;6.53;;
63943;SDS011;50121;51.218;7.664;2023-10-31T05:41:28;7.90;;;7.20;;
63943;SDS011;50121;51.218;7.664;2023-10-31T05:43:55;8.10;;;7.32;;
63943;SDS011;50121;51.218;7.664;2023-10-31T05:46:23;9.48;;;8.05;;
63943;SDS011;50121;51.218;7.664;2023-10-31T05:48:50;12.60;;;9.77;;
63943;SDS011;50121;51.218;7.664;2023-10-31T05:51:18;8.52;;;7.82;;
63943;SDS011;50121;51.218;7.664;2023-10-31T05:53:46;8.18;;;7.47;;
63943;SDS011;50121;51.218;7.664;2023-10-31T05:56:15;15.93;;;14.63;;
63943;SDS011;50121;51.218;7.664;2023-10-31T05:58:43;8.48;;;7.68;;
63943;SDS011;50121;51.218;7.664;2023-10-31T06:01:11;7.60;;;7.00;;
63943;SDS011;50121;51.218;7.664;2023-10-31T06:03:42;8.00;;;7.30;;
63943;SDS011;50121;51.218;7.664;2023-10-31T06:06:11;8.70;;;7.85;;
63943;SDS011;50121;51.218;7.664;2023-10-31T06:08:38;9.15;;;8.23;;
63943;SDS011;50121;51.218;7.664;2023-10-31T06:11:06;7.80;;;7.20;;
63943;SDS011;50121;51.218;7.664;2023-10-31T06:13:34;8.50;;;7.70;;
63943;SDS011;50121;51.218;7.664;2023-10-31T06:16:02;7.85;;;7.15;;
63943;SDS011;50121;51.218;7.664;2023-10-31T06:18:29;7.30;;;6.70;;
63943;SDS011;50121;51.218;7.664;2023-10-31T06:20:57;7.35;;;6.65;;
63943;SDS011;50121;51.218;7.664;2023-10-31T06:23:24;7.13;;;6.43;;
63943;SDS011;50121;51.218;7.664;2023-10-31T06:25:52;8.30;;;6.53;;
63943;SDS011;50121;51.218;7.664;2023-10-31T06:28:19;8.55;;;6.38;;
63943;SDS011;50121;51.218;7.664;2023-10-31T06:30:47;8.90;;;7.53;;
63943;SDS011;50121;51.218;7.664;2023-10-31T06:33:15;10.15;;;6.93;;
63943;SDS011;50121;51.218;7.664;2023-10-31T06:35:42;7.80;;;7.10;;
63943;SDS011;50121;51.218;7.664;2023-10-31T06:38:10;5.95;;;5.45;;
63943;SDS011;50121;51.218;7.664;2023-10-31T06:40:37;8.48;;;6.55;;
63943;SDS011;50121;51.218;7.664;2023-10-31T06:43:06;7.53;;;6.78;;
63943;SDS011;50121;51.218;7.664;2023-10-31T06:45:33;7.35;;;6.40;;
63943;SDS011;50121;51.218;7.664;2023-10-31T06:48:01;7.10;;;6.43;;
63943;SDS011;50121;51.218;7.664;2023-10-31T06:50:29;7.07;;;6.38;;
63943;SDS011;50121;51.218;7.664;2023-10-31T06:52:58;6.68;;;6.03;;
63943;SDS011;50121;51.218;7.664;2023-10-31T06:55:26;6.30;;;5.68;;
63943;SDS011;50121;51.218;7.664;2023-10-31T06:57:53;6.80;;;5.22;;
63943;SDS011;50121;51.218;7.664;2023-10-31T07:00:21;6.20;;;5.53;;
63943;SDS011;50121;51.218;7.664;2023-10-31T07:02:48;5.82;;;5.32;;
63943;SDS011;50121;51.218;7.664;2023-10-31T07:05:16;6.75;;;5.43;;
63943;SDS011;50121;51.218;7.664;2023-10-31T07:07:46;6.72;;;6.13;;
63943;SDS011;50121;51.218;7.664;2023-10-31T07:10:14;6.47;;;5.95;;
63943;SDS011;50121;51.218;7.664;2023-10-31T07:12:42;6.80;;;6.20;;
63943;SDS011;50121;51.218;7.664;2023-10-31T07:15:09;6.60;;;6.00;;
63943;SDS011;50121;51.218;7.664;2023-10-31T07:17:37;7.15;;;6.40;;
63943;SDS011;50121;51.218;7.664;2023-10-31T07:20:05;6.70;;;6.07;;
63943;SDS011;50121;51.218;7.664;2023-10-31T07:22:33;5.60;;;5.15;;
63943;SDS011;50121;51.218;7.664;2023-10-31T07:25:01;7.57;;;6.30;;
63943;SDS011;50121;51.218;7.664;2023-10-31T07:27:30;7.15;;;6.45;;
63943;SDS011;50121;51.218;7.664;2023-10-31T07:29:57;6.75;;;6.05;;
63943;SDS011;50121;51.218;7.664;2023-10-31T07:32:25;6.38;;;5.50;;
63943;SDS011;50121;51.218;7.664;2023-10-31T07:34:52;6.65;;;6.15;;
63943;SDS011;50121;51.218;7.664;2023-10-31T07:37:20;7.47;;;6.82;;
63943;SDS011;50121;51.218;7.664;2023-10-31T07:39:48;6.60;;;6.05;;
63943;SDS011;50121;51.218;7.664;2023-10-31T07:42:17;6.82;;;6.22;;
63943;SDS011;50121;51.218;7.664;2023-10-31T07:44:44;5.63;;;5.13;;
63943;SDS011;50121;51.218;7.664;2023-10-31T07:47:12;6.07;;;5.57;;
63943;SDS011;50121;51.218;7.664;2023-10-31T07:49:39;6.97;;;6.28;;
63943;SDS011;50121;51.218;7.664;2023-10-31T07:52:07;6.50;;;5.90;;
63943;SDS011;50121;51.218;7.664;2023-10-31T07:54:38;6.90;;;5.60;;
63943;SDS011;50121;51.218;7.664;2023-10-31T07:57:07;5.78;;;5.18;;
63943;SDS011;50121;51.218;7.664;2023-10-31T07:59:34;5.40;;;5.00;;
63943;SDS011;50121;51.218;7.664;2023-10-31T08:02:03;5.80;;;5.30;;
63943;SDS011;50121;51.218;7.664;2023-10-31T08:04:31;5.53;;;5.05;;
63943;SDS011;50121;51.218;7.664;2023-10-31T08:06:59;8.18;;;7.35;;
63943;SDS011;50121;51.218;7.664;2023-10-31T08:09:26;6.45;;;5.85;;
63943;SDS011;50121;51.218;7.664;2023-10-31T08:11:54;5.90;;;5.40;;
63943;SDS011;50121;51.218;7.664;2023-10-31T08:14:22;5.90;;;5.30;;
63943;SDS011;50121;51.218;7.664;2023-10-31T08:16:51;6.82;;;6.22;;
63943;SDS011;50121;51.218;7.664;2023-10-31T08:19:19;5.88;;;5.43;;
63943;SDS011;50121;51.218;7.664;2023-10-31T08:21:46;6.38;;;5.80;;
63943;SDS011;50121;51.218;7.664;2023-10-31T08:24:14;7.03;;;6.38;;
63943;SDS011;50121;51.218;7.664;2023-10-31T08:26:41;7.70;;;7.00;;
63943;SDS011;50121;51.218;7.664;2023-10-31T08:29:09;7.43;;;6.72;;
63943;SDS011;50121;51.218;7.664;2023-10-31T08:31:36;7.97;;;7.13;;
63943;SDS011;50121;51.218;7.664;2023-10-31T08:34:04;9.40;;;7.60;;
63943;SDS011;50121;51.218;7.664;2023-10-31T08:36:32;8.57;;;7.60;;
63943;SDS011;50121;51.218;7.664;2023-10-31T08:38:59;7.20;;;6.60;;
63943;SDS011;50121;51.218;7.664;2023-10-31T08:41:27;8.35;;;7.30;;
63943;SDS011;50121;51.218;7.664;2023-10-31T08:43:55;10.63;;;8.35;;
63943;SDS011;50121;51.218;7.664;2023-10-31T08:46:24;9.75;;;8.85;;
63943;SDS011;50121;51.218;7.664;2023-10-31T08:48:52;8.38;;;7.40;;
63943;SDS011;50121;51.218;7.664;2023-10-31T08:51:19;9.68;;;8.10;;
63943;SDS011;50121;51.218;7.664;2023-10-31T08:53:47;9.38;;;8.00;;
63943;SDS011;50121;51.218;7.664;2023-10-31T08:56:15;9.02;;;8.13;;
63943;SDS011;50121;51.218;7.664;2023-10-31T08:58:42;10.18;;;8.18;;
63943;SDS011;50121;51.218;7.664;2023-10-31T09:01:10;9.38;;;8.48;;
63943;SDS011;50121;51.218;7.664;2023-10-31T09:03:37;9.07;;;7.82;;
63943;SDS011;50121;51.218;7.664;2023-10-31T09:06:05;11.15;;;8.48;;
63943;SDS011;50121;51.218;7.664;2023-10-31T09:08:33;13.30;;;9.35;;
63943;SDS011;50121;51.218;7.664;2023-10-31T09:11:00;12.50;;;9.88;;
63943;SDS011;50121;51.218;7.664;2023-10-31T09:13:29;11.75;;;10.00;;
63943;SDS011;50121;51.218;7.664;2023-10-31T09:15:58;13.50;;;9.10;;
63943;SDS011;50121;51.218;7.664;2023-10-31T09:18:25;13.82;;;9.02;;
63943;SDS011;50121;51.218;7.664;2023-10-31T09:20:53;11.38;;;8.93;;
63943;SDS011;50121;51.218;7.664;2023-10-31T09:23:21;10.65;;;8.68;;
63943;SDS011;50121;51.218;7.664;2023-10-31T09:25:48;9.95;;;8.95;;
63943;SDS011;50121;51.218;7.664;2023-10-31T09:28:16;12.60;;;9.68;;
63943;SDS011;50121;51.218;7.664;2023-10-31T09:30:44;10.65;;;9.55;;
63943;SDS011;50121;51.218;7.664;2023-10-31T09:33:12;10.43;;;8.55;;
63943;SDS011;50121;51.218;7.664;2023-10-31T09:35:39;9.23;;;8.32;;
63943;SDS011;50121;51.218;7.664;2023-10-31T09:38:07;8.98;;;7.97;;
63943;SDS011;50121;51.218;7.664;2023-10-31T09:40:36;14.82;;;11.32;;
63943;SDS011;50121;51.218;7.664;2023-10-31T09:43:04;11.00;;;8.10;;
63943;SDS011;50121;51.218;7.664;2023-10-31T09:45:32;9.93;;;7.85;;
63943;SDS011;50121;51.218;7.664;2023-10-31T09:47:59;9.75;;;8.25;;
63943;SDS011;50121;51.218;7.664;2023-10-31T09:50:29;9.82;;;8.30;;
63943;SDS011;50121;51.218;7.664;2023-10-31T09:52:57;9.45;;;8.25;;
63943;SDS011;50121;51.218;7.664;2023-10-31T09:55:25;9.77;;;8.27;;
63943;SDS011;50121;51.218;7.664;2023-10-31T09:57:53;8.90;;;8.00;;
63943;SDS011;50121;51.218;7.664;2023-10-31T10:00:21;11.68;;;8.82;;
63943;SDS011;50121;51.218;7.664;2023-10-31T10:02:49;12.00;;;8.45;;
63943;SDS011;50121;51.218;7.664;2023-10-31T10:05:16;10.57;;;8.93;;
63943;SDS011;50121;51.218;7.664;2023-10-31T10:07:45;12.85;;;9.05;;
63943;SDS011;50121;51.218;7.664;2023-10-31T10:10:12;10.32;;;8.30;;
63943;SDS011;50121;51.218;7.664;2023-10-31T10:12:43;12.73;;;9.45;;
63943;SDS011;50121;51.218;7.664;2023-10-31T10:15:12;9.50;;;8.43;;
63943;SDS011;50121;51.218;7.664;2023-10-31T10:17:41;11.43;;;8.65;;
63943;SDS011;50121;51.218;7.664;2023-10-31T10:20:15;10.10;;;8.50;;
63943;SDS011;50121;51.218;7.664;2023-10-31T10:22:43;11.70;;;8.20;;
63943;SDS011;50121;51.218;7.664;2023-10-31T10:25:13;9.35;;;8.45;;
63943;SDS011;50121;51.218;7.664;2023-10-31T10:30:12;9.55;;;7.88;;
63943;SDS011;50121;51.218;7.664;2023-10-31T10:32:40;8.85;;;7.97;;
63943;SDS011;50121;51.218;7.664;2023-10-31T10:35:08;10.73;;;8.30;;
63943;SDS011;50121;51.218;7.664;2023-10-31T10:37:36;10.48;;;8.60;;
63943;SDS011;50121;51.218;7.664;2023-10-31T10:40:05;10.70;;;9.60;;
63943;SDS011;50121;51.218;7.664;2023-10-31T10:42:46;11.98;;;8.88;;
63943;SDS011;50121;51.218;7.664;2023-10-31T10:45:14;10.23;;;8.90;;
63943;SDS011;50121;51.218;7.664;2023-10-31T10:47:47;11.27;;;8.73;;
63943;SDS011;50121;51.218;7.664;2023-10-31T10:50:15;10.50;;;8.65;;
63943;SDS011;50121;51.218;7.664;2023-10-31T10:52:54;11.25;;;9.32;;
63943;SDS011;50121;51.218;7.664;2023-10-31T10:55:25;11.88;;;9.95;;
63943;SDS011;50121;51.218;7.664;2023-10-31T10:58:09;9.98;;;9.00;;
63943;SDS011;50121;51.218;7.664;2023-10-31T11:00:40;10.45;;;8.75;;
63943;SDS011;50121;51.218;7.664;2023-10-31T11:03:08;11.05;;;9.40;;
63943;SDS011;50121;51.218;7.664;2023-10-31T11:05:36;10.40;;;8.73;;
63943;SDS011;50121;51.218;7.664;2023-10-31T11:08:04;10.93;;;9.82;;
63943;SDS011;50121;51.218;7.664;2023-10-31T11:10:32;9.88;;;8.07;;
63943;SDS011;50121;51.218;7.664;2023-10-31T11:13:00;9.00;;;8.20;;
63943;SDS011;50121;51.218;7.664;2023-10-31T11:15:27;8.95;;;8.02;;
63943;SDS011;50121;51.218;7.664;2023-10-31T11:17:55;9.25;;;8.07;;
63943;SDS011;50121;51.218;7.664;2023-10-31T11:20:24;10.82;;;8.27;;
63943;SDS011;50121;51.218;7.664;2023-10-31T11:22:54;13.55;;;10.15;;
63943;SDS011;50121;51.218;7.664;2023-10-31T11:25:25;10.38;;;8.20;;
63943;SDS011;50121;51.218;7.664;2023-10-31T11:27:54;11.32;;;8.20;;
63943;SDS011;50121;51.218;7.664;2023-10-31T11:30:27;9.23;;;8.23;;
63943;SDS011;50121;51.218;7.664;2023-10-31T11:32:55;8.82;;;7.90;;
63943;SDS011;50121;51.218;7.664;2023-10-31T11:35:22;10.30;;;8.80;;
63943;SDS011;50121;51.218;7.664;2023-10-31T11:38:09;10.68;;;8.88;;
63943;SDS011;50121;51.218;7.664;2023-10-31T11:43:16;10.82;;;7.72;;
63943;SDS011;50121;51.218;7.664;2023-10-31T11:45:44;10.05;;;8.68;;
63943;SDS011;50121;51.218;7.664;2023-10-31T11:48:14;19.23;;;14.48;;
63943;SDS011;50121;51.218;7.664;2023-10-31T11:50:42;7.18;;;5.97;;
63943;SDS011;50121;51.218;7.664;2023-10-31T11:53:13;7.32;;;6.57;;
63943;SDS011;50121;51.218;7.664;2023-10-31T11:55:44;7.38;;;6.78;;
63943;SDS011;50121;51.218;7.664;2023-10-31T11:58:23;7.50;;;6.80;;
63943;SDS011;50121;51.218;7.664;2023-10-31T12:00:52;7.10;;;6.40;;
63943;SDS011;50121;51.218;7.664;2023-10-31T12:03:20;7.20;;;6.60;;
63943;SDS011;50121;51.218;7.664;2023-10-31T12:05:52;7.68;;;6.88;;
63943;SDS011;50121;51.218;7.664;2023-10-31T12:08:33;7.30;;;6.53;;
63943;SDS011;50121;51.218;7.664;2023-10-31T12:11:05;7.50;;;6.80;;
63943;SDS011;50121;51.218;7.664;2023-10-31T12:13:33;8.63;;;6.53;;
63943;SDS011;50121;51.218;7.664;2023-10-31T12:16:01;7.60;;;6.57;;
63943;SDS011;50121;51.218;7.664;2023-10-31T12:18:29;8.13;;;7.00;;
63943;SDS011;50121;51.218;7.664;2023-10-31T12:20:56;8.25;;;6.45;;
63943;SDS011;50121;51.218;7.664;2023-10-31T12:23:24;9.30;;;6.18;;
63943;SDS011;50121;51.218;7.664;2023-10-31T12:25:52;8.93;;;7.25;;
63943;SDS011;50121;51.218;7.664;2023-10-31T12:28:20;8.88;;;6.40;;
63943;SDS011;50121;51.218;7.664;2023-10-31T12:30:49;9.77;;;6.38;;
63943;SDS011;50121;51.218;7.664;2023-10-31T12:33:17;7.00;;;6.40;;
63943;SDS011;50121;51.218;7.664;2023-10-31T12:35:45;10.73;;;7.53;;
63943;SDS011;50121;51.218;7.664;2023-10-31T12:38:12;6.80;;;6.20;;
63943;SDS011;50121;51.218;7.664;2023-10-31T12:40:40;8.73;;;6.90;;
63943;SDS011;50121;51.218;7.664;2023-10-31T12:43:10;6.60;;;6.10;;
63943;SDS011;50121;51.218;7.664;2023-10-31T12:45:37;7.63;;;6.93;;
63943;SDS011;50121;51.218;7.664;2023-10-31T12:48:09;7.78;;;6.38;;
63943;SDS011;50121;51.218;7.664;2023-10-31T12:50:37;7.18;;;6.47;;
63943;SDS011;50121;51.218;7.664;2023-10-31T12:53:06;8.18;;;6.32;;
63943;SDS011;50121;51.218;7.664;2023-10-31T12:55:38;7.72;;;6.93;;
63943;SDS011;50121;51.218;7.664;2023-10-31T12:58:05;7.93;;;7.15;;
63943;SDS011;50121;51.218;7.664;2023-10-31T13:00:34;8.25;;;7.18;;
63943;SDS011;50121;51.218;7.664;2023-10-31T13:03:05;8.77;;;6.90;;
63943;SDS011;50121;51.218;7.664;2023-10-31T13:05:34;8.15;;;7.35;;
63943;SDS011;50121;51.218;7.664;2023-10-31T13:08:14;7.15;;;6.60;;
63943;SDS011;50121;51.218;7.664;2023-10-31T13:10:43;6.90;;;6.30;;
63943;SDS011;50121;51.218;7.664;2023-10-31T13:13:10;7.20;;;6.65;;
63943;SDS011;50121;51.218;7.664;2023-10-31T13:15:39;8.05;;;7.20;;
63943;SDS011;50121;51.218;7.664;2023-10-31T13:18:06;7.50;;;6.80;;
63943;SDS011;50121;51.218;7.664;2023-10-31T13:20:37;9.75;;;7.38;;
63943;SDS011;50121;51.218;7.664;2023-10-31T13:23:05;7.45;;;6.75;;
63943;SDS011;50121;51.218;7.664;2023-10-31T13:25:33;6.85;;;6.18;;
63943;SDS011;50121;51.218;7.664;2023-10-31T13:28:01;6.95;;;6.53;;
63943;SDS011;50121;51.218;7.664;2023-10-31T13:30:30;7.22;;;6.53;;
63943;SDS011;50121;51.218;7.664;2023-10-31T13:32:58;8.27;;;7.68;;
63943;SDS011;50121;51.218;7.664;2023-10-31T13:35:25;7.88;;;6.68;;
63943;SDS011;50121;51.218;7.664;2023-10-31T13:37:53;7.32;;;6.63;;
63943;SDS011;50121;51.218;7.664;2023-10-31T13:40:21;7.82;;;7.28;;
63943;SDS011;50121;51.218;7.664;2023-10-31T13:42:52;7.47;;;6.78;;
63943;SDS011;50121;51.218;7.664;2023-10-31T13:45:20;6.80;;;6.40;;
63943;SDS011;50121;51.218;7.664;2023-10-31T13:47:47;7.28;;;6.55;;
63943;SDS011;50121;51.218;7.664;2023-10-31T13:50:15;6.32;;;5.82;;
63943;SDS011;50121;51.218;7.664;2023-10-31T13:52:43;7.07;;;6.57;;
63943;SDS011;50121;51.218;7.664;2023-10-31T13:55:10;7.03;;;6.32;;
63943;SDS011;50121;51.218;7.664;2023-10-31T13:57:38;7.45;;;6.75;;
63943;SDS011;50121;51.218;7.664;2023-10-31T14:00:05;7.05;;;6.40;;
63943;SDS011;50121;51.218;7.664;2023-10-31T14:02:38;6.70;;;6.20;;
63943;SDS011;50121;51.218;7.664;2023-10-31T14:05:06;6.28;;;5.78;;
63943;SDS011;50121;51.218;7.664;2023-10-31T14:07:34;6.50;;;6.10;;
63943;SDS011;50121;51.218;7.664;2023-10-31T14:10:02;7.43;;;6.88;;
63943;SDS011;50121;51.218;7.664;2023-10-31T14:12:29;11.20;;;9.43;;
63943;SDS011;50121;51.218;7.664;2023-10-31T14:14:57;8.88;;;8.27;;
63943;SDS011;50121;51.218;7.664;2023-10-31T14:17:25;8.07;;;7.30;;
63943;SDS011;50121;51.218;7.664;2023-10-31T14:19:53;8.02;;;7.53;;
63943;SDS011;50121;51.218;7.664;2023-10-31T14:22:20;7.32;;;6.63;;
63943;SDS011;50121;51.218;7.664;2023-10-31T14:24:48;8.02;;;7.47;;
63943;SDS011;50121;51.218;7.664;2023-10-31T14:27:15;7.70;;;7.00;;
63943;SDS011;50121;51.218;7.664;2023-10-31T14:29:43;7.28;;;6.60;;
63943;SDS011;50121;51.218;7.664;2023-10-31T14:32:11;7.82;;;7.03;;
63943;SDS011;50121;51.218;7.664;2023-10-31T14:34:38;8.77;;;7.00;;
63943;SDS011;50121;51.218;7.664;2023-10-31T14:37:06;7.55;;;7.15;;
63943;SDS011;50121;51.218;7.664;2023-10-31T14:39:34;7.57;;;6.97;;
63943;SDS011;50121;51.218;7.664;2023-10-31T14:42:01;7.90;;;7.22;;
63943;SDS011;50121;51.218;7.664;2023-10-31T14:44:29;7.15;;;6.45;;
63943;SDS011;50121;51.218;7.664;2023-10-31T14:46:56;8.20;;;7.53;;
63943;SDS011;50121;51.218;7.664;2023-10-31T14:49:24;8.30;;;6.63;;
63943;SDS011;50121;51.218;7.664;2023-10-31T14:51:52;7.10;;;6.10;;
63943;SDS011;50121;51.218;7.664;2023-10-31T14:54:19;7.60;;;6.88;;
63943;SDS011;50121;51.218;7.664;2023-10-31T14:56:47;7.25;;;6.55;;